Data for 05/05/2007

Time Sea-Level Adjusted Pressure Absolute Pressure Temperature Relative Humidity Dew Point   
(mb) (inHg) (mb) (inHg) (C) (F) (%) (C) (F)
00:05 1014 29.94 843 24.89 5 40.9 50 -4.7 23.6
00:10 1014 29.94 843 24.89 4.5 40.2 51 -4.7 23.6
00:15 1014 29.94 843 24.89 4.2 39.6 51 -5.1 22.9
00:20 1014 29.94 843 24.89 4.2 39.6 50 -5.3 22.4
00:25 1014 29.94 843 24.89 4.4 39.9 50 -5.1 22.8
00:30 1014 29.94 843 24.89 4.5 40.1 49 -5.4 22.3
00:35 1014 29.94 843 24.89 4.7 40.4 48 -5.4 22.2
00:40 1014 29.94 843 24.89 4.7 40.4 48 -5.4 22.3
00:45 1014 29.94 843 24.89 4.7 40.4 47 -5.6 21.9
00:50 1014 29.94 843 24.89 4.6 40.3 47 -5.6 21.9
00:55 1014 29.94 843 24.89 4.4 40 49 -5.5 22.1
01:00 1014 29.94 843 24.89 4.4 40 47 -5.8 21.6
01:05 1014 29.94 843 24.89 4.6 40.2 47 -5.7 21.7
01:10 1014 29.94 843 24.89 4.4 40 49 -5.2 22.6
01:15 1014 29.94 843 24.89 4.2 39.5 52 -4.9 23.1
01:20 1014 29.94 843 24.89 3.9 39 54 -4.7 23.6
01:25 1014 29.94 843 24.89 4 39.2 54 -4.6 23.8
01:30 1014 29.94 843 24.89 3.8 38.9 57 -3.8 25.1
01:35 1014 29.94 843 24.89 3.7 38.6 55 -4.5 23.9
01:40 1014 29.94 843 24.89 3.7 38.7 56 -4.3 24.3
01:45 1014 29.94 843 24.89 3.7 38.7 55 -4.5 24
01:50 1014 29.94 843 24.89 3.6 38.4 56 -4.5 23.9
01:55 1014 29.94 843 24.89 3.6 38.4 55 -4.6 23.6
02:00 1014 29.94 843 24.89 3.5 38.4 55 -4.8 23.4
02:05 1014 29.94 843 24.89 3.5 38.2 55 -4.7 23.5
02:10 1014 29.94 843 24.89 3.4 38.2 54 -5 23
02:15 1014 29.94 843 24.89 3.4 38.1 54 -5.1 22.7
02:20 1014 29.94 843 24.89 3.3 38 56 -4.7 23.6
02:25 1014 29.94 843 24.89 3.3 38 52 -5.7 21.8
02:30 1014 29.94 843 24.89 3.4 38.1 51 -5.8 21.5
02:35 1014 29.94 843 24.89 3.3 37.9 52 -5.7 21.7
02:40 1014 29.94 843 24.89 3.3 37.9 52 -5.6 21.9
02:45 1014 29.94 843 24.89 3.3 38 52 -5.7 21.7
02:50 1014 29.94 843 24.89 3.2 37.8 53 -5.4 22.3
02:55 1014 29.94 843 24.89 3.1 37.6 54 -5.4 22.3
03:00 1014 29.94 843 24.89 3 37.4 54 -5.3 22.4
03:05 1014 29.94 843 24.89 3 37.4 55 -5.2 22.7
03:10 1014 29.94 843 24.89 2.9 37.2 55 -5.2 22.7
03:15 1014 29.94 843 24.89 3.1 37.7 50 -6.2 20.9
03:20 1014 29.94 843 24.89 3.4 38.2 50 -6 21.2
03:25 1014 29.94 843 24.89 3.2 37.8 54 -5.2 22.6
03:30 1014 29.94 843 24.89 2.8 37.1 56 -5.2 22.7
03:35 1014 29.94 843 24.89 2.6 36.7 56 -5.2 22.7
03:40 1014 29.94 843 24.89 2.6 36.7 54 -5.8 21.6
03:45 1014 29.94 843 24.89 2.7 36.8 51 -6.4 20.5
03:50 1014 29.94 843 24.89 2.7 36.9 49 -7 19.3
03:55 1014 29.94 843 24.89 2.8 37 47 -7.5 18.5
04:00 1014 29.94 843 24.89 2.8 37.1 46 -7.6 18.4
04:05 1014 29.94 843 24.89 2.8 37 46 -7.7 18.1
04:10 1014 29.94 843 24.89 2.8 37.1 45 -8 17.6
04:15 1014 29.94 844 24.92 2.9 37.1 46 -7.7 18.1
04:20 1014 29.94 844 24.92 2.8 37 46 -7.8 17.9
04:25 1014 29.94 844 24.92 2.6 36.7 48 -7.4 18.6
04:30 1014 29.94 844 24.92 2.5 36.5 47 -7.7 18.2
04:35 1014 29.94 844 24.92 2.6 36.8 47 -7.5 18.5
04:40 1015 29.97 844 24.92 2.6 36.7 48 -7.4 18.7
04:45 1015 29.97 844 24.92 2.6 36.7 48 -7.5 18.6
04:50 1015 29.97 844 24.92 2.6 36.8 47 -7.6 18.3
04:55 1015 29.97 844 24.92 2.8 37 47 -7.5 18.5
05:00 1015 29.97 844 24.92 2.8 37 47 -7.5 18.5
05:05 1015 29.97 844 24.92 2.8 37.1 46 -7.6 18.3
05:10 1015 29.97 844 24.92 2.8 37 50 -6.8 19.8
05:15 1015 29.97 844 24.92 2.6 36.7 52 -6.3 20.6
05:20 1015 29.97 844 24.92 2.3 36.2 53 -6.2 20.8
05:25 1015 29.97 844 24.92 2.3 36.1 53 -6.3 20.6
05:30 1015 29.97 844 24.92 2.5 36.4 52 -6.3 20.6
05:35 1015 29.97 844 24.92 2.5 36.6 48 -7.4 18.6
05:40 1015 29.97 844 24.92 2.4 36.4 51 -6.8 19.8
05:45 1015 29.97 845 24.95 2.5 36.4 52 -6.5 20.4
05:50 1015 29.97 845 24.95 2.2 36 56 -5.7 21.7
05:55 1016 30 845 24.95 1.9 35.4 61 -4.9 23.1
06:00 1016 30 845 24.95 1.5 34.7 64 -4.5 23.9
06:05 1016 30 845 24.95 1.3 34.3 65 -4.5 23.9
06:10 1016 30 845 24.95 1.3 34.3 67 -4.3 24.3
06:15 1016 30 845 24.95 1.2 34.2 67 -4.3 24.3
06:20 1016 30 845 24.95 1.2 34.1 66 -4.4 24
06:25 1016 30 845 24.95 1.2 34.2 66 -4.5 23.9
06:30 1016 30 845 24.95 1.4 34.5 64 -4.6 23.8
06:35 1016 30 845 24.95 1.5 34.6 65 -4.5 23.9
06:40 1016 30 845 24.95 1.4 34.6 65 -4.5 23.9
06:45 1016 30 845 24.95 1.5 34.7 63 -4.7 23.6
06:50 1016 30 846 24.98 1.4 34.6 64 -4.6 23.8
06:55 1016 30 846 24.98 1.2 34.2 67 -4.3 24.3
07:00 1016 30 846 24.98 1 33.8 71 -3.7 25.3
07:05 1017 30.03 846 24.98 0.9 33.6 71 -3.8 25.1
07:10 1016 30 846 24.98 0.8 33.4 70 -4.1 24.5
07:15 1016 30 846 24.98 1 33.8 68 -4.2 24.4
07:20 1017 30.03 846 24.98 1.2 34.1 66 -4.4 24
07:25 1017 30.03 846 24.98 1.3 34.3 65 -4.5 23.9
07:30 1017 30.03 846 24.98 1.6 34.8 63 -4.8 23.4
07:35 1017 30.03 846 24.98 1.6 34.9 63 -4.7 23.6
07:40 1017 30.03 846 24.98 1.5 34.7 66 -4.2 24.5
07:45 1017 30.03 846 24.98 1.3 34.3 65 -4.5 23.9
07:50 1017 30.03 846 24.98 1.4 34.5 65 -4.6 23.8
07:55 1017 30.03 846 24.98 1.3 34.3 67 -4.2 24.4
08:00 1017 30.03 846 24.98 1.4 34.4 70 -3.5 25.6
08:05 1017 30.03 846 24.98 1.2 34.1 71 -3.5 25.6
08:10 1017 30.03 846 24.98 1.4 34.5 69 -3.7 25.4
08:15 1017 30.03 846 24.98 1.7 35.1 68 -3.5 25.7
08:20 1017 30.03 846 24.98 1.7 35.1 66 -3.9 25.1
08:25 1017 30.03 846 24.98 2 35.6 62 -4.6 23.8
08:30 1017 30.03 846 24.98 2.3 36.1 58 -5.1 22.9
08:35 1017 30.03 846 24.98 2.5 36.4 57 -5.1 22.8
08:40 1017 30.03 846 24.98 2.7 36.9 58 -4.8 23.3
08:45 1017 30.03 846 24.98 2.6 36.7 57 -5 23
08:50 1017 30.03 846 24.98 2.8 37 54 -5.5 22.1
08:55 1017 30.03 846 24.98 2.9 37.2 56 -5 23.1
09:00 1017 30.03 846 24.98 2.9 37.3 56 -5 23
09:05 1017 30.03 846 24.98 3.1 37.5 53 -5.6 22
09:10 1017 30.03 846 24.98 3.3 37.9 51 -6 21.2
09:15 1017 30.03 846 24.98 3.5 38.2 52 -5.6 22
09:20 1017 30.03 846 24.98 4 39.2 49 -5.8 21.6
09:25 1017 30.03 846 24.98 4.1 39.4 49 -5.8 21.6
09:30 1017 30.03 846 24.98 4 39.1 48 -6.2 20.9
09:35 1017 30.03 846 24.98 4 39.2 49 -5.8 21.5
09:40 1017 30.03 846 24.98 4.4 39.9 47 -5.9 21.3
09:45 1017 30.03 846 24.98 4.8 40.6 45 -6 21.2
09:50 1017 30.03 846 24.98 5.1 41.2 45 -5.7 21.7
09:55 1017 30.03 846 24.98 5 41 44 -6.1 21
10:00 1017 30.03 846 24.98 4.8 40.6 47 -5.6 21.9
10:05 1017 30.03 846 24.98 4.6 40.2 46 -5.9 21.3
10:10 1017 30.03 846 24.98 4.8 40.7 46 -5.9 21.4
10:15 1017 30.03 846 24.98 5 41 46 -5.8 21.5
10:20 1017 30.03 846 24.98 5 40.9 46 -5.8 21.5
10:25 1017 30.03 846 24.98 4.9 40.9 47 -5.5 22.1
10:30 1017 30.03 846 24.98 5.1 41.1 47 -5.3 22.5
10:35 1017 30.03 846 24.98 5 41 47 -5.5 22.2
10:40 1017 30.03 847 25.01 4.7 40.5 46 -5.8 21.6
10:45 1017 30.03 847 25.01 5 41 46 -5.8 21.5
10:50 1017 30.03 847 25.01 4.9 40.8 47 -5.6 22
10:55 1017 30.03 847 25.01 4.9 40.8 46 -5.8 21.5
11:00 1017 30.03 847 25.01 5.1 41.1 45 -6 21.2
11:05 1017 30.03 847 25.01 5.2 41.3 44 -6.2 20.8
11:10 1017 30.03 847 25.01 5.4 41.7 44 -5.8 21.6
11:15 1017 30.03 847 25.01 5.2 41.3 45 -5.8 21.6
11:20 1017 30.03 847 25.01 5.4 41.6 44 -5.9 21.3
11:25 1017 30.03 847 25.01 5.4 41.7 45 -5.7 21.8
11:30 1017 30.03 847 25.01 5.5 42 44 -5.8 21.5
11:35 1017 30.03 847 25.01 5.6 42.1 43 -5.8 21.5
11:40 1017 30.03 847 25.01 5.9 42.7 43 -5.6 21.9
11:45 1017 30.03 847 25.01 5.9 42.6 44 -5.5 22.2
11:50 1018 30.06 847 25.01 5.9 42.7 41 -6.2 20.8
11:55 1018 30.06 847 25.01 5.3 41.6 43 -6.2 20.9
12:00 1018 30.06 847 25.01 5.7 42.3 43 -6 21.2
12:05 1018 30.06 847 25.01 5.3 41.5 45 -5.7 21.8
12:10 1018 30.06 847 25.01 5.5 41.8 44 -5.9 21.3
12:15 1018 30.06 847 25.01 5.1 41.2 45 -5.8 21.6
12:20 1018 30.06 847 25.01 5.2 41.4 43 -6.3 20.6
12:25 1018 30.06 847 25.01 5.5 42 43 -6 21.3
12:30 1018 30.06 847 25.01 5.5 42 44 -5.9 21.4
12:35 1018 30.06 847 25.01 6 42.7 42 -6 21.2
12:40 1018 30.06 847 25.01 5.5 41.9 45 -5.5 22
12:45 1018 30.06 847 25.01 5.6 42.1 43 -6.1 21.1
12:50 1018 30.06 847 25.01 5.5 42 44 -5.8 21.6
12:55 1018 30.06 847 25.01 5.9 42.7 43 -5.7 21.8
13:00 1017 30.03 847 25.01 6.1 42.9 42 -5.9 21.4
13:05 1017 30.03 847 25.01 6.4 43.5 42 -5.7 21.8
13:10 1017 30.03 847 25.01 5.7 42.3 44 -5.6 22
13:15 1017 30.03 847 25.01 5.9 42.7 43 -5.8 21.5
13:20 1017 30.03 847 25.01 6.9 44.4 39 -6 21.2
13:25 1017 30.03 847 25.01 7 44.6 41 -5.4 22.3
13:30 1017 30.03 846 24.98 6.8 44.3 41 -5.6 21.9
13:35 1017 30.03 846 24.98 6.8 44.2 40 -5.9 21.3
13:40 1017 30.03 846 24.98 7 44.5 41 -5.5 22.1
13:45 1017 30.03 846 24.98 6.8 44.2 42 -5.3 22.4
13:50 1017 30.03 846 24.98 6.7 44.1 41 -5.5 22
13:55 1017 30.03 846 24.98 7.7 45.8 38 -5.6 22
14:00 1017 30.03 846 24.98 7.5 45.5 39 -5.6 21.9
14:05 1017 30.03 846 24.98 7.8 46 39 -5.4 22.3
14:10 1017 30.03 846 24.98 7 44.6 43 -4.8 23.4
14:15 1017 30.03 846 24.98 7.5 45.5 40 -5.4 22.3
14:20 1017 30.03 846 24.98 7.2 44.9 41 -5.2 22.7
14:25 1017 30.03 846 24.98 6.9 44.4 42 -5.2 22.6
14:30 1017 30.03 846 24.98 7.4 45.3 40 -5.2 22.6
14:35 1017 30.03 846 24.98 7.6 45.6 41 -4.8 23.3
14:40 1017 30.03 846 24.98 7.7 45.8 39 -5.4 22.2
14:45 1017 30.03 846 24.98 7.8 46.1 41 -4.6 23.8
14:50 1017 30.03 846 24.98 7.8 46.1 41 -4.6 23.8
14:55 1017 30.03 846 24.98 7.6 45.7 42 -4.4 24.1
15:00 1017 30.03 846 24.98 7.6 45.6 41 -5 23.1
15:05 1017 30.03 846 24.98 7.9 46.2 41 -4.4 24.1
15:10 1017 30.03 846 24.98 8 46.4 41 -4.4 24.1
15:15 1017 30.03 846 24.98 7.9 46.2 41 -4.5 23.8
15:20 1017 30.03 846 24.98 8.2 46.7 41 -4.2 24.5
15:25 1017 30.03 846 24.98 8.4 47.1 40 -4.3 24.2
15:30 1017 30.03 846 24.98 8.1 46.6 40 -4.5 23.9
15:35 1017 30.03 846 24.98 8.3 46.9 41 -4.3 24.3
15:40 1017 30.03 846 24.98 8.3 46.9 41 -4 24.7
15:45 1017 30.03 846 24.98 8.4 47.1 38 -5.1 22.8
15:50 1017 30.03 846 24.98 9 48.3 39 -4.1 24.6
15:55 1017 30.03 846 24.98 9.5 49.1 38 -4.1 24.7
16:00 1017 30.03 846 24.98 9.3 48.7 40 -3.7 25.4
16:05 1017 30.03 846 24.98 8.9 48 40 -4.1 24.6
16:10 1017 30.03 846 24.98 9.3 48.7 40 -3.7 25.4
16:15 1017 30.03 846 24.98 9.1 48.3 40 -3.6 25.4
16:20 1017 30.03 846 24.98 8.8 47.9 40 -3.9 24.9
16:25 1017 30.03 846 24.98 9.4 48.8 37 -4.5 23.9
16:30 1017 30.03 846 24.98 10 50 36 -4.3 24.3
16:35 1017 30.03 846 24.98 10.4 50.8 38 -3.4 25.9
16:40 1017 30.03 846 24.98 10.1 50.2 36 -4.3 24.2
16:45 1017 30.03 846 24.98 9.4 49 37 -4.4 24.1
16:50 1017 30.03 846 24.98 9.4 48.9 38 -4.2 24.5
16:55 1017 30.03 846 24.98 9.7 49.4 38 -3.9 25
17:00 1017 30.03 846 24.98 9.7 49.4 36 -4.7 23.6
17:05 1017 30.03 846 24.98 9.7 49.5 36 -4.6 23.8
17:10 1017 30.03 846 24.98 9.6 49.2 37 -4.4 24.1
17:15 1017 30.03 846 24.98 9.7 49.4 35 -4.8 23.3
17:20 1017 30.03 846 24.98 9.8 49.6 35 -4.8 23.3
17:25 1017 30.03 846 24.98 10.1 50.2 35 -4.6 23.8
17:30 1017 30.03 846 24.98 9.9 49.8 36 -4.6 23.7
17:35 1017 30.03 846 24.98 10.2 50.4 34 -4.8 23.3
17:40 1017 30.03 846 24.98 10.3 50.6 35 -4.6 23.7
17:45 1017 30.03 846 24.98 10.5 50.9 34 -4.5 23.9
17:50 1017 30.03 846 24.98 10.6 51 34 -4.6 23.8
17:55 1017 30.03 846 24.98 10 50.1 35 -4.9 23.2
18:00 1017 30.03 846 24.98 10.1 50.2 35 -4.8 23.4
18:05 1017 30.03 846 24.98 10.2 50.3 34 -4.9 23.2
18:10 1017 30.03 846 24.98 9.6 49.3 36 -4.7 23.5
18:15 1017 30.03 846 24.98 9.9 49.7 35 -4.9 23.1
18:20 1017 30.03 846 24.98 10 49.9 36 -4.3 24.3
18:25 1017 30.03 846 24.98 9.8 49.6 36 -4.6 23.8
18:30 1017 30.03 846 24.98 10.2 50.3 34 -4.9 23.2
18:35 1017 30.03 846 24.98 10.4 50.8 34 -4.7 23.5
18:40 1017 30.03 846 24.98 10.2 50.3 35 -4.7 23.5
18:45 1017 30.03 846 24.98 9.8 49.7 35 -4.8 23.3
18:50 1017 30.03 846 24.98 9.8 49.6 35 -5 23
18:55 1017 30.03 846 24.98 9.9 49.9 35 -4.8 23.4
19:00 1017 30.03 846 24.98 10.1 50.1 35 -4.9 23.3
19:05 1017 30.03 846 24.98 10.1 50.2 36 -4.4 24
19:10 1017 30.03 846 24.98 10.3 50.6 34 -4.7 23.5
19:15 1017 30.03 846 24.98 10.5 50.8 34 -4.8 23.4
19:20 1017 30.03 846 24.98 10.3 50.5 37 -3.9 25
19:25 1017 30.03 846 24.98 10.1 50.1 36 -4.2 24.4
19:30 1017 30.03 846 24.98 10.3 50.5 35 -4.5 23.9
19:35 1017 30.03 846 24.98 10.1 50.1 36 -4.3 24.3
19:40 1017 30.03 846 24.98 10.2 50.3 35 -4.7 23.5
19:45 1017 30.03 846 24.98 10.2 50.3 35 -4.7 23.5
19:50 1017 30.03 846 24.98 10.4 50.7 34 -4.7 23.6
19:55 1017 30.03 846 24.98 10.3 50.5 35 -4.4 24
20:00 1017 30.03 846 24.98 10.4 50.7 34 -4.7 23.5
20:05 1017 30.03 846 24.98 10.2 50.4 35 -4.6 23.8
20:10 1017 30.03 846 24.98 10 49.9 36 -4.5 23.9
20:15 1017 30.03 846 24.98 10.1 50.2 36 -4.1 24.5
20:20 1017 30.03 846 24.98 10.3 50.6 37 -3.8 25.1
20:25 1017 30.03 846 24.98 10.4 50.8 36 -3.9 24.9
20:30 1017 30.03 846 24.98 10.5 50.9 37 -3.6 25.5
20:35 1017 30.03 846 24.98 10.4 50.6 37 -3.6 25.4
20:40 1017 30.03 846 24.98 10.2 50.4 38 -3.3 26.1
20:45 1017 30.03 846 24.98 10.2 50.4 38 -3.4 25.9
20:50 1017 30.03 846 24.98 10.2 50.4 38 -3.6 25.5
20:55 1017 30.03 846 24.98 10.2 50.4 38 -3.6 25.5
21:00 1017 30.03 846 24.98 10.1 50.2 38 -3.7 25.4
21:05 1017 30.03 846 24.98 9.9 49.9 37 -4 24.8
21:10 1017 30.03 846 24.98 9.9 49.8 37 -4.2 24.4
21:15 1017 30.03 846 24.98 9.8 49.6 38 -3.9 24.9
21:20 1017 30.03 846 24.98 9.7 49.4 38 -3.9 24.9
21:25 1017 30.03 846 24.98 9.5 49 39 -3.7 25.4
21:30 1017 30.03 846 24.98 9.2 48.5 41 -3.5 25.7
21:35 1017 30.03 846 24.98 9 48.1 41 -3.6 25.5
21:40 1017 30.03 846 24.98 8.8 47.9 41 -3.7 25.4
21:45 1017 30.03 846 24.98 8.7 47.6 42 -3.6 25.6
21:50 1017 30.03 847 25.01 8.5 47.3 42 -3.6 25.5
21:55 1017 30.03 847 25.01 8.4 47.2 43 -3.5 25.7
22:00 1017 30.03 847 25.01 8.4 47 43 -3.4 25.8
22:05 1017 30.03 847 25.01 8.2 46.7 44 -3.3 26
22:10 1017 30.03 847 25.01 8.1 46.6 44 -3.3 26.1
22:15 1017 30.03 847 25.01 8.1 46.5 44 -3.3 26.1
22:20 1018 30.06 847 25.01 8.1 46.6 45 -3.2 26.2
22:25 1018 30.06 847 25.01 8.1 46.6 45 -3 26.6
22:30 1018 30.06 847 25.01 8.1 46.5 46 -2.9 26.8
22:35 1018 30.06 847 25.01 8 46.4 46 -2.9 26.7
22:40 1018 30.06 847 25.01 8 46.3 46 -3 26.6
22:45 1018 30.06 847 25.01 8 46.4 45 -3.3 26.1
22:50 1018 30.06 847 25.01 8 46.4 44 -3.6 25.5
22:55 1018 30.06 847 25.01 8.1 46.6 43 -3.6 25.6
23:00 1018 30.06 847 25.01 8.1 46.6 44 -3.4 25.9
23:05 1018 30.06 847 25.01 8 46.4 45 -3.2 26.2
23:10 1018 30.06 847 25.01 7.9 46.3 44 -3.5 25.7
23:15 1018 30.06 847 25.01 7.9 46.1 45 -3.4 25.9
23:20 1018 30.06 847 25.01 7.7 45.9 44 -3.6 25.6
23:25 1018 30.06 847 25.01 7.7 45.8 45 -3.4 25.8
23:30 1018 30.06 847 25.01 7.5 45.6 47 -3.2 26.3
23:35 1018 30.06 847 25.01 7.4 45.2 48 -3 26.7
23:40 1018 30.06 847 25.01 7.3 45.1 49 -2.8 27
23:45 1018 30.06 847 25.01 7.1 44.8 50 -2.7 27.1
23:50 1018 30.06 847 25.01 6.9 44.4 50 -2.7 27.1
23:55 1018 30.06 847 25.01 6.6 43.9 51 -2.7 27.2
24:00 1018 30.06 847 25.01 6.1 43.1 55 -2.3 27.8